Time,TemperatureF,DewpointF,PressureIn,WindDirection,WindDirectionDegrees,WindSpeedMPH,WindSpeedGustMPH,Humidity,HourlyPrecipIn,Conditions,Clouds,dailyrainin,SoftwareType,DateUTC
2013-08-07 00:01:00,59.0,54.2,30.08,SSE,163,0.0,0.0,84,0.00,,,0.00,Wunderground v.1.15,2013-08-07 04:01:00,
2013-08-07 00:02:00,58.9,54.1,30.08,SSE,163,0.0,0.0,84,0.00,,,0.00,Wunderground v.1.15,2013-08-07 04:02:00,
2013-08-07 00:03:00,58.9,54.1,30.08,SSE,163,0.0,0.0,84,0.00,,,0.00,Wunderground v.1.15,2013-08-07 04:03:00,
2013-08-07 00:04:00,58.7,53.9,30.08,SSE,163,0.0,0.0,84,0.00,,,0.00,Wunderground v.1.15,2013-08-07 04:04:00,
2013-08-07 00:08:00,58.4,53.9,30.08,SSE,163,0.0,0.0,85,0.00,,,0.00,Wunderground v.1.15,2013-08-07 04:08:00,
2013-08-07 00:13:00,58.0,53.5,30.08,SSE,163,0.0,0.0,85,0.00,,,0.00,Wunderground v.1.15,2013-08-07 04:13:00,
2013-08-07 00:18:00,57.8,53.6,30.08,SSE,163,0.0,0.0,86,0.00,,,0.00,Wunderground v.1.15,2013-08-07 04:18:00,
2013-08-07 00:23:00,57.5,53.7,30.08,SSE,163,0.0,0.0,87,0.00,,,0.00,Wunderground v.1.15,2013-08-07 04:23:00,
2013-08-07 00:29:00,57.3,53.5,30.08,SSE,163,0.0,0.0,87,0.00,,,0.00,Wunderground v.1.15,2013-08-07 04:29:00,
2013-08-07 00:34:00,57.2,53.7,30.08,SSE,163,0.0,0.0,88,0.00,,,0.00,Wunderground v.1.15,2013-08-07 04:34:00,
2013-08-07 00:39:00,57.0,53.5,30.08,SSE,163,0.0,0.0,88,0.00,,,0.00,Wunderground v.1.15,2013-08-07 04:39:00,
2013-08-07 00:44:00,57.5,54.3,30.08,SSE,163,0.0,0.0,89,0.00,,,0.00,Wunderground v.1.15,2013-08-07 04:44:00,
2013-08-07 00:50:00,57.8,54.3,30.08,SSE,163,0.0,0.0,88,0.00,,,0.00,Wunderground v.1.15,2013-08-07 04:50:00,
2013-08-07 00:55:00,58.0,54.2,30.08,SSE,163,0.0,0.0,87,0.00,,,0.00,Wunderground v.1.15,2013-08-07 04:55:00,
2013-08-07 01:00:00,57.8,54.0,30.08,SSE,163,0.0,0.0,87,0.00,,,0.00,Wunderground v.1.15,2013-08-07 05:00:00,
2013-08-07 01:06:00,57.8,54.0,30.08,SSE,163,0.0,0.0,87,0.00,,,0.00,Wunderground v.1.15,2013-08-07 05:06:00,
2013-08-07 01:11:00,57.8,53.6,30.08,SSE,163,0.0,0.0,86,0.00,,,0.00,Wunderground v.1.15,2013-08-07 05:11:00,
2013-08-07 01:16:00,57.6,53.4,30.08,SSE,163,0.0,0.0,86,0.00,,,0.00,Wunderground v.1.15,2013-08-07 05:16:00,
2013-08-07 01:21:00,57.0,52.9,30.08,SSE,163,0.0,0.0,86,0.00,,,0.00,Wunderground v.1.15,2013-08-07 05:21:00,
2013-08-07 01:27:00,56.7,52.9,30.08,SSE,163,0.0,0.0,87,0.00,,,0.00,Wunderground v.1.15,2013-08-07 05:27:00,
2013-08-07 01:32:00,56.7,53.2,30.08,SSE,163,0.0,0.0,88,0.00,,,0.00,Wunderground v.1.15,2013-08-07 05:32:00,
2013-08-07 01:37:00,57.0,53.5,30.08,SSE,163,0.0,0.0,88,0.00,,,0.00,Wunderground v.1.15,2013-08-07 05:37:00,
2013-08-07 01:43:00,57.2,53.4,30.08,SSE,163,0.0,0.0,87,0.00,,,0.00,Wunderground v.1.15,2013-08-07 05:43:00,
2013-08-07 01:48:00,57.2,53.4,30.08,SSE,163,1.0,1.0,87,0.00,,,0.00,Wunderground v.1.15,2013-08-07 05:48:00,
2013-08-07 01:54:00,57.3,53.5,30.08,SSE,163,2.0,3.0,87,0.00,,,0.00,Wunderground v.1.15,2013-08-07 05:54:00,
2013-08-07 02:00:00,57.6,53.8,30.08,SSE,162,3.0,3.0,87,0.00,,,0.00,Wunderground v.1.15,2013-08-07 06:00:00,
2013-08-07 02:05:00,58.0,53.8,30.08,SSE,162,0.0,4.0,86,0.00,,,0.00,Wunderground v.1.15,2013-08-07 06:05:00,
2013-08-07 02:10:00,58.3,54.1,30.08,SSE,159,0.0,1.0,86,0.00,,,0.00,Wunderground v.1.15,2013-08-07 06:10:00,
2013-08-07 02:15:00,58.4,53.9,30.08,SSE,159,0.0,3.0,85,0.00,,,0.00,Wunderground v.1.15,2013-08-07 06:15:00,
2013-08-07 02:20:00,58.4,53.9,30.08,SSE,159,3.0,4.0,85,0.00,,,0.00,Wunderground v.1.15,2013-08-07 06:20:00,
2013-08-07 02:25:00,58.4,53.9,30.08,SSE,159,0.0,4.0,85,0.00,,,0.00,Wunderground v.1.15,2013-08-07 06:25:00,
2013-08-07 02:30:00,58.4,53.9,30.08,SSE,159,0.0,0.0,85,0.00,,,0.00,Wunderground v.1.15,2013-08-07 06:30:00,
2013-08-07 02:35:00,58.6,54.1,30.08,SSE,159,1.0,1.0,85,0.00,,,0.00,Wunderground v.1.15,2013-08-07 06:35:00,
2013-08-07 02:40:00,58.7,54.2,30.08,SSE,159,0.0,0.0,85,0.00,,,0.00,Wunderground v.1.15,2013-08-07 06:40:00,
2013-08-07 02:45:00,58.6,54.1,30.09,SSE,159,0.0,0.0,85,0.00,,,0.00,Wunderground v.1.15,2013-08-07 06:45:00,
2013-08-07 02:50:00,58.6,54.1,30.09,SSE,159,0.0,0.0,85,0.00,,,0.00,Wunderground v.1.15,2013-08-07 06:50:00,
2013-08-07 02:55:00,58.6,54.1,30.09,SSE,159,0.0,0.0,85,0.00,,,0.00,Wunderground v.1.15,2013-08-07 06:55:00,
2013-08-07 03:00:00,58.6,54.1,30.09,SSE,159,0.0,0.0,85,0.00,,,0.00,Wunderground v.1.15,2013-08-07 07:00:00,
2013-08-07 03:06:00,58.6,54.1,30.09,SSE,159,0.0,1.0,85,0.00,,,0.00,Wunderground v.1.15,2013-08-07 07:06:00,
2013-08-07 03:11:00,58.6,54.1,30.09,SSE,159,0.0,0.0,85,0.00,,,0.00,Wunderground v.1.15,2013-08-07 07:11:00,
2013-08-07 03:16:00,58.7,54.2,30.09,SSE,159,0.0,2.0,85,0.00,,,0.00,Wunderground v.1.15,2013-08-07 07:16:00,
2013-08-07 03:21:00,58.7,54.2,30.09,SSE,159,0.0,0.0,85,0.00,,,0.00,Wunderground v.1.15,2013-08-07 07:21:00,
2013-08-07 03:26:00,58.7,54.2,30.09,SSE,159,0.0,2.0,85,0.00,,,0.00,Wunderground v.1.15,2013-08-07 07:26:00,
2013-08-07 03:31:00,58.9,54.4,30.09,SSE,159,0.0,0.0,85,0.00,,,0.00,Wunderground v.1.15,2013-08-07 07:31:00,
2013-08-07 03:36:00,58.9,54.4,30.09,SSE,159,0.0,1.0,85,0.00,,,0.00,Wunderground v.1.15,2013-08-07 07:36:00,
2013-08-07 03:41:00,59.0,54.5,30.09,SSE,159,0.0,1.0,85,0.00,,,0.00,Wunderground v.1.15,2013-08-07 07:41:00,
2013-08-07 03:46:00,59.2,54.7,30.09,SSE,159,0.0,2.0,85,0.00,,,0.00,Wunderground v.1.15,2013-08-07 07:46:00,
2013-08-07 03:51:00,59.3,54.8,30.09,SSE,159,0.0,0.0,85,0.00,,,0.00,Wunderground v.1.15,2013-08-07 07:51:00,
2013-08-07 03:56:00,59.5,54.7,30.09,SSE,159,0.0,1.0,84,0.00,,,0.00,Wunderground v.1.15,2013-08-07 07:56:00,
2013-08-07 04:01:00,59.5,54.7,30.09,SSE,159,0.0,1.0,84,0.00,,,0.00,Wunderground v.1.15,2013-08-07 08:01:00,
2013-08-07 04:06:00,59.6,54.8,30.09,SSE,159,0.0,2.0,84,0.00,,,0.00,Wunderground v.1.15,2013-08-07 08:06:00,
2013-08-07 04:11:00,59.8,55.0,30.09,SSE,159,0.0,0.0,84,0.00,,,0.00,Wunderground v.1.15,2013-08-07 08:11:00,
2013-08-07 04:16:00,59.9,55.1,30.09,SSE,159,0.0,3.0,84,0.00,,,0.00,Wunderground v.1.15,2013-08-07 08:16:00,
2013-08-07 04:21:00,60.1,55.2,30.09,SSE,159,0.0,0.0,84,0.00,,,0.00,Wunderground v.1.15,2013-08-07 08:21:00,
2013-08-07 04:26:00,59.9,55.1,30.09,SSE,159,0.0,0.0,84,0.00,,,0.00,Wunderground v.1.15,2013-08-07 08:26:00,
2013-08-07 04:31:00,59.8,55.3,30.09,SSE,159,0.0,0.0,85,0.00,,,0.00,Wunderground v.1.15,2013-08-07 08:31:00,
2013-08-07 04:36:00,59.8,55.3,30.09,SSE,159,0.0,0.0,85,0.00,,,0.00,Wunderground v.1.15,2013-08-07 08:36:00,
2013-08-07 04:41:00,59.9,55.1,30.09,SSE,159,0.0,0.0,84,0.00,,,0.00,Wunderground v.1.15,2013-08-07 08:41:00,
2013-08-07 04:46:00,60.1,55.2,30.09,SSE,159,0.0,0.0,84,0.00,,,0.00,Wunderground v.1.15,2013-08-07 08:46:00,
2013-08-07 04:51:00,60.1,55.2,30.09,SSE,159,0.0,0.0,84,0.00,,,0.00,Wunderground v.1.15,2013-08-07 08:51:00,
2013-08-07 04:56:00,59.9,55.1,30.09,SSE,159,0.0,0.0,84,0.00,,,0.00,Wunderground v.1.15,2013-08-07 08:56:00,
2013-08-07 05:00:00,60.1,55.6,30.09,SSE,159,0.0,0.0,85,0.00,,,0.00,Wunderground v.1.15,2013-08-07 09:00:00,
2013-08-07 05:06:00,60.1,55.6,30.09,SSE,159,0.0,0.0,85,0.00,,,0.00,Wunderground v.1.15,2013-08-07 09:06:00,
2013-08-07 05:11:00,60.1,55.6,30.09,SSE,159,0.0,1.0,85,0.00,,,0.00,Wunderground v.1.15,2013-08-07 09:11:00,
2013-08-07 05:16:00,60.2,55.3,30.09,SSE,159,0.0,1.0,84,0.00,,,0.00,Wunderground v.1.15,2013-08-07 09:16:00,
2013-08-07 05:21:00,60.5,55.6,30.09,SSE,159,0.0,0.0,84,0.00,,,0.00,Wunderground v.1.15,2013-08-07 09:21:00,
2013-08-07 05:27:00,60.9,55.7,30.09,SSE,159,0.0,2.0,83,0.00,,,0.00,Wunderground v.1.15,2013-08-07 09:27:00,
2013-08-07 05:32:00,61.0,55.5,30.09,SSE,159,0.0,1.0,82,0.00,,,0.00,Wunderground v.1.15,2013-08-07 09:32:00,
2013-08-07 05:37:00,61.0,55.5,30.09,SSE,159,0.0,1.0,82,0.00,,,0.00,Wunderground v.1.15,2013-08-07 09:37:00,
2013-08-07 05:43:00,60.9,55.7,30.09,SSE,159,0.0,0.0,83,0.00,,,0.00,Wunderground v.1.15,2013-08-07 09:43:00,
2013-08-07 05:48:00,61.0,55.8,30.09,SSE,159,0.0,0.0,83,0.00,,,0.00,Wunderground v.1.15,2013-08-07 09:48:00,
2013-08-07 05:53:00,61.0,55.5,30.09,SSE,159,0.0,1.0,82,0.00,,,0.00,Wunderground v.1.15,2013-08-07 09:53:00,
2013-08-07 05:58:00,61.0,55.8,30.09,SSE,159,0.0,1.0,83,0.00,,,0.00,Wunderground v.1.15,2013-08-07 09:58:00,
2013-08-07 06:03:00,60.9,56.0,30.09,SSE,159,0.0,0.0,84,0.00,,,0.00,Wunderground v.1.15,2013-08-07 10:03:00,
2013-08-07 06:08:00,60.7,56.2,30.09,SSE,159,0.0,0.0,85,0.00,,,0.00,Wunderground v.1.15,2013-08-07 10:08:00,
2013-08-07 06:13:00,60.7,56.2,30.09,SSE,159,0.0,0.0,85,0.00,,,0.00,Wunderground v.1.15,2013-08-07 10:13:00,
2013-08-07 06:18:00,60.9,56.4,30.09,SSE,159,0.0,0.0,85,0.00,,,0.00,Wunderground v.1.15,2013-08-07 10:18:00,
2013-08-07 06:23:00,60.9,56.4,30.09,SSE,159,0.0,0.0,85,0.00,,,0.00,Wunderground v.1.15,2013-08-07 10:23:00,
2013-08-07 06:28:00,60.7,56.5,30.09,SSE,159,0.0,0.0,86,0.00,,,0.00,Wunderground v.1.15,2013-08-07 10:28:00,
2013-08-07 06:33:00,60.5,56.6,30.09,SSE,159,0.0,0.0,87,0.00,,,0.00,Wunderground v.1.15,2013-08-07 10:33:00,
2013-08-07 06:38:00,60.9,57.0,30.09,SSE,159,0.0,4.0,87,0.00,,,0.00,Wunderground v.1.15,2013-08-07 10:38:00,
2013-08-07 06:43:00,62.0,57.1,30.09,SSE,159,2.0,5.0,84,0.00,,,0.00,Wunderground v.1.15,2013-08-07 10:43:00,
2013-08-07 06:49:00,63.1,57.2,30.09,SSE,159,0.0,5.0,81,0.00,,,0.00,Wunderground v.1.15,2013-08-07 10:49:00,
2013-08-07 06:54:00,63.7,57.1,30.09,SSE,159,2.0,5.0,79,0.00,,,0.00,Wunderground v.1.15,2013-08-07 10:54:00,
2013-08-07 06:59:00,63.9,56.9,30.09,SSE,167,2.0,10.0,78,0.00,,,0.00,Wunderground v.1.15,2013-08-07 10:59:00,
2013-08-07 07:04:00,64.0,57.0,30.09,SSE,167,6.0,6.0,78,0.00,,,0.00,Wunderground v.1.15,2013-08-07 11:04:00,
2013-08-07 07:09:00,64.3,57.3,30.09,SSE,167,0.0,6.0,78,0.00,,,0.00,Wunderground v.1.15,2013-08-07 11:09:00,
2013-08-07 07:14:00,64.5,57.1,30.09,SSE,163,4.0,7.0,77,0.00,,,0.00,Wunderground v.1.15,2013-08-07 11:14:00,
2013-08-07 07:19:00,64.7,57.3,30.09,SSE,162,0.0,7.0,77,0.00,,,0.00,Wunderground v.1.15,2013-08-07 11:19:00,
2013-08-07 07:24:00,64.8,57.4,30.09,SSE,159,0.0,9.0,77,0.00,,,0.00,Wunderground v.1.15,2013-08-07 11:24:00,
2013-08-07 07:29:00,65.0,57.6,30.09,SSE,159,3.0,9.0,77,0.00,,,0.00,Wunderground v.1.15,2013-08-07 11:29:00,
2013-08-07 07:34:00,65.0,57.6,30.09,SSE,159,2.0,4.0,77,0.00,,,0.00,Wunderground v.1.15,2013-08-07 11:34:00,
2013-08-07 07:39:00,65.0,57.6,30.09,SSE,161,5.0,6.0,77,0.00,,,0.00,Wunderground v.1.15,2013-08-07 11:39:00,
2013-08-07 07:44:00,65.0,57.6,30.10,SSE,161,3.0,5.0,77,0.00,,,0.00,Wunderground v.1.15,2013-08-07 11:44:00,
2013-08-07 07:49:00,65.0,57.6,30.10,SSE,165,0.0,5.0,77,0.00,,,0.00,Wunderground v.1.15,2013-08-07 11:49:00,
2013-08-07 07:54:00,65.2,57.8,30.10,SSE,159,2.0,6.0,77,0.00,,,0.00,Wunderground v.1.15,2013-08-07 11:54:00,
2013-08-07 07:59:00,65.2,58.2,30.11,SSE,159,0.0,6.0,78,0.00,,,0.00,Wunderground v.1.15,2013-08-07 11:59:00,
2013-08-07 08:04:00,65.3,58.3,30.11,SSE,161,3.0,5.0,78,0.00,,,0.00,Wunderground v.1.15,2013-08-07 12:04:00,
2013-08-07 08:09:00,65.5,58.1,30.11,SSE,161,0.0,5.0,77,0.00,,,0.00,Wunderground v.1.15,2013-08-07 12:09:00,
2013-08-07 08:14:00,65.8,58.4,30.11,SSE,157,4.0,7.0,77,0.00,,,0.00,Wunderground v.1.15,2013-08-07 12:14:00,
2013-08-07 08:19:00,66.4,59.0,30.11,SSE,162,6.0,7.0,77,0.00,,,0.00,Wunderground v.1.15,2013-08-07 12:19:00,
2013-08-07 08:24:00,67.3,59.5,30.11,SSE,162,0.0,2.0,76,0.00,,,0.00,Wunderground v.1.15,2013-08-07 12:24:00,
2013-08-07 08:29:00,67.6,59.4,30.10,SSE,153,2.0,4.0,75,0.00,,,0.00,Wunderground v.1.15,2013-08-07 12:29:00,
2013-08-07 08:34:00,68.1,59.5,30.10,SSE,157,0.0,5.0,74,0.00,,,0.00,Wunderground v.1.15,2013-08-07 12:34:00,
2013-08-07 08:39:00,68.4,59.8,30.10,SSE,161,3.0,6.0,74,0.00,,,0.00,Wunderground v.1.15,2013-08-07 12:39:00,
2013-08-07 08:44:00,68.1,59.1,30.10,SSE,165,0.0,11.0,73,0.00,,,0.00,Wunderground v.1.15,2013-08-07 12:44:00,
2013-08-07 08:49:00,68.1,59.1,30.10,SSE,158,0.0,11.0,73,0.00,,,0.00,Wunderground v.1.15,2013-08-07 12:49:00,
2013-08-07 08:54:00,68.3,58.9,30.10,South,171,5.0,8.0,72,0.00,,,0.00,Wunderground v.1.15,2013-08-07 12:54:00,
2013-08-07 08:59:00,68.1,58.7,30.10,South,171,3.0,10.0,72,0.00,,,0.00,Wunderground v.1.15,2013-08-07 12:59:00,
2013-08-07 09:04:00,68.1,58.7,30.10,South,174,3.0,12.0,72,0.00,,,0.00,Wunderground v.1.15,2013-08-07 13:04:00,
2013-08-07 09:09:00,68.1,59.1,30.10,SSE,157,7.0,12.0,73,0.00,,,0.00,Wunderground v.1.15,2013-08-07 13:09:00,
2013-08-07 09:14:00,68.4,59.0,30.09,South,174,4.0,13.0,72,0.00,,,0.00,Wunderground v.1.15,2013-08-07 13:14:00,
2013-08-07 09:19:00,68.8,59.8,30.09,South,180,5.0,13.0,73,0.00,,,0.00,Wunderground v.1.15,2013-08-07 13:19:00,
2013-08-07 09:24:00,69.1,60.1,30.09,South,178,0.0,6.0,73,0.00,,,0.00,Wunderground v.1.15,2013-08-07 13:24:00,
2013-08-07 09:29:00,69.6,60.6,30.09,South,178,3.0,7.0,73,0.00,,,0.00,Wunderground v.1.15,2013-08-07 13:29:00,
2013-08-07 09:34:00,69.6,59.8,30.09,SSW,208,4.0,13.0,71,0.00,,,0.00,Wunderground v.1.15,2013-08-07 13:34:00,
2013-08-07 09:39:00,69.8,60.0,30.09,South,187,3.0,14.0,71,0.00,,,0.00,Wunderground v.1.15,2013-08-07 13:39:00,
2013-08-07 09:44:00,69.9,60.1,30.09,South,182,3.0,11.0,71,0.00,,,0.00,Wunderground v.1.15,2013-08-07 13:44:00,
2013-08-07 09:49:00,70.4,60.5,30.09,SSE,159,2.0,14.0,71,0.00,,,0.00,Wunderground v.1.15,2013-08-07 13:49:00,
2013-08-07 09:54:00,71.1,60.4,30.09,SSW,198,0.0,10.0,69,0.00,,,0.00,Wunderground v.1.15,2013-08-07 13:54:00,
2013-08-07 09:59:00,71.6,60.9,30.08,SSE,162,6.0,16.0,69,0.00,,,0.00,Wunderground v.1.15,2013-08-07 13:59:00,
2013-08-07 10:04:00,71.8,61.1,30.08,South,188,2.0,11.0,69,0.00,,,0.00,Wunderground v.1.15,2013-08-07 14:04:00,
2013-08-07 10:09:00,72.0,61.3,30.08,SSE,159,10.0,21.0,69,0.00,,,0.00,Wunderground v.1.15,2013-08-07 14:09:00,
2013-08-07 10:14:00,72.1,61.4,30.08,SSW,212,5.0,15.0,69,0.00,,,0.00,Wunderground v.1.15,2013-08-07 14:14:00,
2013-08-07 10:19:00,72.5,61.3,30.08,South,175,10.0,15.0,68,0.00,,,0.00,Wunderground v.1.15,2013-08-07 14:19:00,
2013-08-07 10:24:00,72.7,61.5,30.08,South,188,0.0,14.0,68,0.00,,,0.00,Wunderground v.1.15,2013-08-07 14:24:00,
2013-08-07 10:29:00,72.7,60.3,30.07,South,169,8.0,16.0,65,0.00,,,0.00,Wunderground v.1.15,2013-08-07 14:29:00,
2013-08-07 10:34:00,72.0,59.6,30.07,SSW,202,9.0,20.0,65,0.00,,,0.00,Wunderground v.1.15,2013-08-07 14:34:00,
2013-08-07 10:39:00,71.8,59.8,30.07,South,189,7.0,10.0,66,0.00,,,0.00,Wunderground v.1.15,2013-08-07 14:39:00,
2013-08-07 10:44:00,72.1,61.0,30.07,SW,218,10.0,15.0,68,0.00,,,0.00,Wunderground v.1.15,2013-08-07 14:44:00,
2013-08-07 10:49:00,72.1,60.5,30.07,South,176,9.0,9.0,67,0.00,,,0.00,Wunderground v.1.15,2013-08-07 14:49:00,
2013-08-07 10:54:00,72.3,60.7,30.07,South,174,6.0,17.0,67,0.00,,,0.00,Wunderground v.1.15,2013-08-07 14:54:00,
2013-08-07 10:59:00,72.3,60.3,30.06,South,186,11.0,11.0,66,0.00,,,0.00,Wunderground v.1.15,2013-08-07 14:59:00,
2013-08-07 11:04:00,72.5,60.5,30.06,SSW,193,11.0,20.0,66,0.00,,,0.00,Wunderground v.1.15,2013-08-07 15:04:00,
2013-08-07 11:09:00,72.7,61.1,30.06,South,184,9.0,9.0,67,0.00,,,0.00,Wunderground v.1.15,2013-08-07 15:09:00,
2013-08-07 11:14:00,72.8,60.3,30.06,SSW,202,9.0,15.0,65,0.00,,,0.00,Wunderground v.1.15,2013-08-07 15:14:00,
2013-08-07 11:20:00,73.3,60.8,30.06,South,188,3.0,7.0,65,0.00,,,0.00,Wunderground v.1.15,2013-08-07 15:20:00,
2013-08-07 11:25:00,74.0,61.9,30.06,SW,216,1.0,12.0,66,0.00,,,0.00,Wunderground v.1.15,2013-08-07 15:25:00,
2013-08-07 11:30:00,74.6,61.2,30.06,SSE,168,9.0,11.0,63,0.00,,,0.00,Wunderground v.1.15,2013-08-07 15:30:00,
2013-08-07 11:35:00,74.2,59.9,30.06,SSW,204,11.0,17.0,61,0.00,,,0.00,Wunderground v.1.15,2013-08-07 15:35:00,
2013-08-07 11:40:00,74.4,60.5,30.06,SSW,197,4.0,7.0,62,0.00,,,0.00,Wunderground v.1.15,2013-08-07 15:40:00,
2013-08-07 11:45:00,74.9,60.5,30.06,South,186,5.0,17.0,61,0.00,,,0.00,Wunderground v.1.15,2013-08-07 15:45:00,
2013-08-07 11:50:00,74.7,58.9,30.06,WSW,252,3.0,9.0,58,0.00,,,0.00,Wunderground v.1.15,2013-08-07 15:50:00,
2013-08-07 11:55:00,74.6,58.4,30.06,South,180,10.0,14.0,57,0.00,,,0.00,Wunderground v.1.15,2013-08-07 15:55:00,
2013-08-07 12:00:00,74.6,58.8,30.06,SW,227,5.0,7.0,58,0.00,,,0.00,Wunderground v.1.15,2013-08-07 16:00:00,
2013-08-07 12:05:00,75.1,59.3,30.06,SW,217,0.0,10.0,58,0.00,,,0.00,Wunderground v.1.15,2013-08-07 16:05:00,
2013-08-07 12:10:00,75.6,60.7,30.06,SSE,157,4.0,6.0,60,0.00,,,0.00,Wunderground v.1.15,2013-08-07 16:10:00,
2013-08-07 12:15:00,75.4,59.6,30.06,South,171,3.0,14.0,58,0.00,,,0.00,Wunderground v.1.15,2013-08-07 16:15:00,
2013-08-07 12:20:00,76.0,59.7,30.06,South,178,6.0,7.0,57,0.00,,,0.00,Wunderground v.1.15,2013-08-07 16:20:00,
2013-08-07 12:25:00,76.3,60.9,30.06,SE,144,11.0,12.0,59,0.00,,,0.00,Wunderground v.1.15,2013-08-07 16:25:00,
2013-08-07 12:30:00,77.0,59.6,30.05,South,173,4.0,8.0,55,0.00,,,0.00,Wunderground v.1.15,2013-08-07 16:30:00,
2013-08-07 12:35:00,77.0,58.0,30.05,SSW,196,14.0,17.0,52,0.00,,,0.00,Wunderground v.1.15,2013-08-07 16:35:00,
2013-08-07 12:40:00,76.8,59.9,30.05,SSE,150,11.0,12.0,56,0.00,,,0.00,Wunderground v.1.15,2013-08-07 16:40:00,
2013-08-07 12:45:00,77.2,60.3,30.04,SSW,204,11.0,14.0,56,0.00,,,0.00,Wunderground v.1.15,2013-08-07 16:45:00,
2013-08-07 12:50:00,77.2,59.3,30.04,South,182,7.0,11.0,54,0.00,,,0.00,Wunderground v.1.15,2013-08-07 16:50:00,
2013-08-07 12:55:00,77.4,59.5,30.04,South,184,0.0,16.0,54,0.00,,,0.00,Wunderground v.1.15,2013-08-07 16:55:00,
2013-08-07 13:00:00,77.7,59.2,30.03,SSW,192,17.0,17.0,53,0.00,,,0.00,Wunderground v.1.15,2013-08-07 17:00:00,
2013-08-07 13:05:00,77.4,57.9,30.03,South,175,4.0,17.0,51,0.00,,,0.00,Wunderground v.1.15,2013-08-07 17:05:00,
2013-08-07 13:10:00,77.2,57.7,30.03,South,185,8.0,11.0,51,0.00,,,0.00,Wunderground v.1.15,2013-08-07 17:10:00,
2013-08-07 13:15:00,77.4,58.4,30.04,SSW,192,6.0,15.0,52,0.00,,,0.00,Wunderground v.1.15,2013-08-07 17:15:00,
2013-08-07 13:20:00,77.7,57.6,30.04,SSW,211,6.0,12.0,50,0.00,,,0.00,Wunderground v.1.15,2013-08-07 17:20:00,
2013-08-07 13:25:00,78.1,57.4,30.04,SSW,195,9.0,18.0,49,0.00,,,0.00,Wunderground v.1.15,2013-08-07 17:25:00,
2013-08-07 13:30:00,78.3,57.6,30.04,South,190,4.0,12.0,49,0.00,,,0.00,Wunderground v.1.15,2013-08-07 17:30:00,
2013-08-07 13:35:00,78.5,60.5,30.04,South,184,3.0,13.0,54,0.00,,,0.00,Wunderground v.1.15,2013-08-07 17:35:00,
2013-08-07 13:40:00,78.5,58.3,30.04,South,184,4.0,11.0,50,0.00,,,0.00,Wunderground v.1.15,2013-08-07 17:40:00,
2013-08-07 13:45:00,78.3,59.2,30.05,SSW,211,5.0,14.0,52,0.00,,,0.00,Wunderground v.1.15,2013-08-07 17:45:00,
2013-08-07 13:50:00,77.6,60.2,30.05,SSW,206,0.0,11.0,55,0.00,,,0.00,Wunderground v.1.15,2013-08-07 17:50:00,
2013-08-07 13:55:00,77.7,58.7,30.05,South,188,8.0,11.0,52,0.00,,,0.00,Wunderground v.1.15,2013-08-07 17:55:00,
2013-08-07 14:00:00,77.7,59.2,30.05,SSW,200,0.0,12.0,53,0.00,,,0.00,Wunderground v.1.15,2013-08-07 18:00:00,
2013-08-07 14:05:00,77.9,58.3,30.05,WSW,243,6.0,18.0,51,0.00,,,0.00,Wunderground v.1.15,2013-08-07 18:05:00,
2013-08-07 14:11:00,77.9,58.3,30.05,South,187,14.0,14.0,51,0.00,,,0.00,Wunderground v.1.15,2013-08-07 18:11:00,
2013-08-07 14:16:00,78.1,59.6,30.05,SSE,166,0.0,17.0,53,0.00,,,0.00,Wunderground v.1.15,2013-08-07 18:16:00,
2013-08-07 14:21:00,78.1,59.0,30.05,SSW,205,11.0,12.0,52,0.00,,,0.00,Wunderground v.1.15,2013-08-07 18:21:00,
2013-08-07 14:26:00,77.6,58.6,30.05,SW,214,12.0,14.0,52,0.00,,,0.00,Wunderground v.1.15,2013-08-07 18:26:00,
2013-08-07 14:31:00,77.6,59.1,30.04,South,190,10.0,14.0,53,0.00,,,0.00,Wunderground v.1.15,2013-08-07 18:31:00,
2013-08-07 14:36:00,77.7,59.7,30.04,SSW,194,11.0,14.0,54,0.00,,,0.00,Wunderground v.1.15,2013-08-07 18:36:00,
2013-08-07 14:41:00,77.9,58.9,30.04,South,179,6.0,14.0,52,0.00,,,0.00,Wunderground v.1.15,2013-08-07 18:41:00,
2013-08-07 14:46:00,77.9,59.4,30.04,SSW,194,0.0,14.0,53,0.00,,,0.00,Wunderground v.1.15,2013-08-07 18:46:00,
2013-08-07 14:51:00,78.1,59.6,30.04,SW,231,14.0,14.0,53,0.00,,,0.00,Wunderground v.1.15,2013-08-07 18:51:00,
2013-08-07 14:56:00,77.7,59.2,30.04,SSE,157,9.0,15.0,53,0.00,,,0.00,Wunderground v.1.15,2013-08-07 18:56:00,
2013-08-07 15:01:00,78.1,59.6,30.03,SSE,160,7.0,12.0,53,0.00,,,0.00,Wunderground v.1.15,2013-08-07 19:01:00,
2013-08-07 15:06:00,78.6,60.0,30.03,South,173,1.0,16.0,53,0.00,,,0.00,Wunderground v.1.15,2013-08-07 19:06:00,
2013-08-07 15:11:00,78.8,60.2,30.03,SSE,165,0.0,15.0,53,0.00,,,0.00,Wunderground v.1.15,2013-08-07 19:11:00,
2013-08-07 15:16:00,78.6,59.5,30.03,SSE,160,7.0,15.0,52,0.00,,,0.00,Wunderground v.1.15,2013-08-07 19:16:00,
2013-08-07 15:21:00,77.9,58.9,30.03,SSE,156,7.0,22.0,52,0.00,,,0.00,Wunderground v.1.15,2013-08-07 19:21:00,
2013-08-07 15:26:00,77.4,59.5,30.03,South,184,5.0,22.0,54,0.00,,,0.00,Wunderground v.1.15,2013-08-07 19:26:00,
2013-08-07 15:31:00,77.6,59.1,30.02,SSW,198,20.0,20.0,53,0.00,,,0.00,Wunderground v.1.15,2013-08-07 19:31:00,
2013-08-07 15:36:00,77.9,59.4,30.02,SSW,199,14.0,20.0,53,0.00,,,0.00,Wunderground v.1.15,2013-08-07 19:36:00,
2013-08-07 15:41:00,78.1,59.6,30.02,SSE,163,7.0,17.0,53,0.00,,,0.00,Wunderground v.1.15,2013-08-07 19:41:00,
2013-08-07 15:46:00,77.9,59.9,30.02,SSE,166,5.0,17.0,54,0.00,,,0.00,Wunderground v.1.15,2013-08-07 19:46:00,
2013-08-07 15:51:00,77.9,59.9,30.02,SSW,193,5.0,14.0,54,0.00,,,0.00,Wunderground v.1.15,2013-08-07 19:51:00,
2013-08-07 15:56:00,77.7,60.2,30.02,SSW,207,0.0,14.0,55,0.00,,,0.00,Wunderground v.1.15,2013-08-07 19:56:00,
2013-08-07 16:01:00,78.1,62.1,30.02,South,169,0.0,7.0,58,0.00,,,0.00,Wunderground v.1.15,2013-08-07 20:01:00,
2013-08-07 16:06:00,78.6,60.6,30.02,South,186,3.0,11.0,54,0.00,,,0.00,Wunderground v.1.15,2013-08-07 20:06:00,
2013-08-07 16:11:00,78.5,61.5,30.02,South,183,2.0,4.0,56,0.00,,,0.00,Wunderground v.1.15,2013-08-07 20:11:00,
2013-08-07 16:16:00,77.9,60.9,30.01,South,182,3.0,16.0,56,0.00,,,0.00,Wunderground v.1.15,2013-08-07 20:16:00,
2013-08-07 16:21:00,77.6,60.7,30.01,South,188,0.0,15.0,56,0.00,,,0.00,Wunderground v.1.15,2013-08-07 20:21:00,
2013-08-07 16:26:00,77.6,60.7,30.01,SW,224,5.0,15.0,56,0.00,,,0.00,Wunderground v.1.15,2013-08-07 20:26:00,
2013-08-07 16:31:00,77.6,60.7,30.01,SSW,196,7.0,14.0,56,0.00,,,0.00,Wunderground v.1.15,2013-08-07 20:31:00,
2013-08-07 16:36:00,77.2,60.8,30.01,SSE,168,0.0,14.0,57,0.00,,,0.00,Wunderground v.1.15,2013-08-07 20:36:00,
2013-08-07 16:41:00,76.8,60.4,30.01,South,182,4.0,14.0,57,0.00,,,0.00,Wunderground v.1.15,2013-08-07 20:41:00,
2013-08-07 16:46:00,76.7,60.8,30.01,South,171,0.0,14.0,58,0.00,,,0.00,Wunderground v.1.15,2013-08-07 20:46:00,
2013-08-07 16:52:00,76.5,60.6,30.01,South,182,0.0,8.0,58,0.00,,,0.00,Wunderground v.1.15,2013-08-07 20:52:00,
2013-08-07 16:56:00,76.5,60.6,30.01,SSW,195,0.0,11.0,58,0.00,,,0.00,Wunderground v.1.15,2013-08-07 20:56:00,
2013-08-07 17:01:00,76.5,61.1,30.00,South,173,6.0,12.0,59,0.00,,,0.00,Wunderground v.1.15,2013-08-07 21:01:00,
2013-08-07 17:06:00,76.5,60.6,30.00,SSW,207,5.0,16.0,58,0.00,,,0.00,Wunderground v.1.15,2013-08-07 21:06:00,
2013-08-07 17:11:00,76.3,61.4,30.00,SSE,157,7.0,7.0,60,0.00,,,0.00,Wunderground v.1.15,2013-08-07 21:11:00,
2013-08-07 17:16:00,76.5,61.1,30.00,SSW,192,6.0,14.0,59,0.00,,,0.00,Wunderground v.1.15,2013-08-07 21:16:00,
2013-08-07 17:21:00,76.5,60.6,30.00,SSW,197,0.0,16.0,58,0.00,,,0.00,Wunderground v.1.15,2013-08-07 21:21:00,
2013-08-07 17:26:00,76.1,60.2,30.00,SW,216,7.0,16.0,58,0.00,,,0.00,Wunderground v.1.15,2013-08-07 21:26:00,
2013-08-07 17:31:00,76.1,61.2,30.00,SSW,195,8.0,12.0,60,0.00,,,0.00,Wunderground v.1.15,2013-08-07 21:31:00,
2013-08-07 17:36:00,76.3,60.9,30.00,South,178,0.0,12.0,59,0.00,,,0.00,Wunderground v.1.15,2013-08-07 21:36:00,
2013-08-07 17:41:00,76.5,60.1,30.00,SSW,206,5.0,14.0,57,0.00,,,0.00,Wunderground v.1.15,2013-08-07 21:41:00,
2013-08-07 17:47:00,76.5,60.1,30.00,South,180,9.0,14.0,57,0.00,,,0.00,Wunderground v.1.15,2013-08-07 21:47:00,
2013-08-07 17:52:00,76.0,59.7,30.00,South,171,3.0,15.0,57,0.00,,,0.00,Wunderground v.1.15,2013-08-07 21:52:00,
2013-08-07 17:57:00,75.6,59.8,30.00,South,190,7.0,15.0,58,0.00,,,0.00,Wunderground v.1.15,2013-08-07 21:57:00,
2013-08-07 18:02:00,75.6,59.8,30.00,South,188,3.0,16.0,58,0.00,,,0.00,Wunderground v.1.15,2013-08-07 22:02:00,
2013-08-07 18:07:00,75.4,60.1,30.00,SSW,209,5.0,16.0,59,0.00,,,0.00,Wunderground v.1.15,2013-08-07 22:07:00,
2013-08-07 18:12:00,75.4,60.5,30.00,South,183,7.0,7.0,60,0.00,,,0.00,Wunderground v.1.15,2013-08-07 22:12:00,
2013-08-07 18:17:00,75.3,60.5,29.99,South,180,7.0,14.0,60,0.00,,,0.00,Wunderground v.1.15,2013-08-07 22:17:00,
2013-08-07 18:22:00,75.1,60.3,29.99,South,186,2.0,11.0,60,0.00,,,0.00,Wunderground v.1.15,2013-08-07 22:22:00,
2013-08-07 18:27:00,75.1,59.8,29.99,South,188,5.0,14.0,59,0.00,,,0.00,Wunderground v.1.15,2013-08-07 22:27:00,
2013-08-07 18:32:00,75.1,60.3,29.99,SSW,194,7.0,14.0,60,0.00,,,0.00,Wunderground v.1.15,2013-08-07 22:32:00,
2013-08-07 18:37:00,75.1,60.3,29.99,SSW,197,11.0,15.0,60,0.00,,,0.00,Wunderground v.1.15,2013-08-07 22:37:00,
2013-08-07 18:42:00,74.9,60.5,29.99,SSE,167,9.0,9.0,61,0.00,,,0.00,Wunderground v.1.15,2013-08-07 22:42:00,
2013-08-07 18:47:00,74.7,60.4,29.97,South,171,0.0,11.0,61,0.00,,,0.00,Wunderground v.1.15,2013-08-07 22:47:00,
2013-08-07 18:52:00,74.6,60.3,29.97,South,186,9.0,11.0,61,0.00,,,0.00,Wunderground v.1.15,2013-08-07 22:52:00,
2013-08-07 18:57:00,74.6,60.3,29.97,South,178,1.0,11.0,61,0.00,,,0.00,Wunderground v.1.15,2013-08-07 22:57:00,
2013-08-07 19:02:00,74.4,60.5,29.98,South,184,1.0,7.0,62,0.00,,,0.00,Wunderground v.1.15,2013-08-07 23:02:00,
2013-08-07 19:07:00,74.2,60.3,29.98,South,182,5.0,9.0,62,0.00,,,0.00,Wunderground v.1.15,2013-08-07 23:07:00,
2013-08-07 19:12:00,74.2,60.8,29.99,South,182,0.0,7.0,63,0.00,,,0.00,Wunderground v.1.15,2013-08-07 23:12:00,
2013-08-07 19:18:00,74.0,60.2,29.99,SSW,196,4.0,9.0,62,0.00,,,0.00,Wunderground v.1.15,2013-08-07 23:18:00,
2013-08-07 19:23:00,74.0,60.6,29.99,South,184,0.0,7.0,63,0.00,,,0.00,Wunderground v.1.15,2013-08-07 23:23:00,
2013-08-07 19:28:00,74.0,60.6,29.98,South,173,6.0,9.0,63,0.00,,,0.00,Wunderground v.1.15,2013-08-07 23:28:00,
2013-08-07 19:33:00,73.9,60.5,29.98,South,175,2.0,8.0,63,0.00,,,0.00,Wunderground v.1.15,2013-08-07 23:33:00,
2013-08-07 19:38:00,73.9,60.5,29.98,SSE,160,9.0,9.0,63,0.00,,,0.00,Wunderground v.1.15,2013-08-07 23:38:00,
2013-08-07 19:43:00,73.7,60.3,29.97,SSE,166,0.0,7.0,63,0.00,,,0.00,Wunderground v.1.15,2013-08-07 23:43:00,
2013-08-07 19:48:00,73.7,60.3,29.97,SSE,160,0.0,13.0,63,0.00,,,0.00,Wunderground v.1.15,2013-08-07 23:48:00,
2013-08-07 19:53:00,73.7,60.8,29.97,South,182,1.0,9.0,64,0.00,,,0.00,Wunderground v.1.15,2013-08-07 23:53:00,
2013-08-07 19:58:00,73.7,60.8,29.98,South,173,0.0,10.0,64,0.00,,,0.00,Wunderground v.1.15,2013-08-07 23:58:00,
2013-08-07 20:03:00,73.5,60.6,29.98,South,187,0.0,7.0,64,0.00,,,0.00,Wunderground v.1.15,2013-08-08 00:03:00,
2013-08-07 20:08:00,73.3,60.8,29.98,South,185,3.0,7.0,65,0.00,,,0.00,Wunderground v.1.15,2013-08-08 00:08:00,
2013-08-07 20:13:00,73.0,61.0,29.98,South,190,0.0,6.0,66,0.00,,,0.00,Wunderground v.1.15,2013-08-08 00:13:00,
2013-08-07 20:18:00,73.0,61.0,29.98,South,190,4.0,6.0,66,0.00,,,0.00,Wunderground v.1.15,2013-08-08 00:18:00,
2013-08-07 20:23:00,72.7,61.1,29.98,South,182,0.0,5.0,67,0.00,,,0.00,Wunderground v.1.15,2013-08-08 00:23:00,
2013-08-07 20:28:00,72.5,61.3,29.99,South,182,0.0,5.0,68,0.00,,,0.00,Wunderground v.1.15,2013-08-08 00:28:00,
2013-08-07 20:33:00,72.3,61.1,29.99,South,169,0.0,9.0,68,0.00,,,0.00,Wunderground v.1.15,2013-08-08 00:33:00,
2013-08-07 20:38:00,72.3,61.1,29.99,South,171,0.0,9.0,68,0.00,,,0.00,Wunderground v.1.15,2013-08-08 00:38:00,
2013-08-07 20:43:00,72.1,61.4,29.99,SSE,167,0.0,5.0,69,0.00,,,0.00,Wunderground v.1.15,2013-08-08 00:43:00,
2013-08-07 20:48:00,72.1,61.4,29.99,SSE,155,0.0,12.0,69,0.00,,,0.00,Wunderground v.1.15,2013-08-08 00:48:00,
2013-08-07 20:53:00,72.0,61.3,29.99,South,173,10.0,12.0,69,0.00,,,0.00,Wunderground v.1.15,2013-08-08 00:53:00,
2013-08-07 20:59:00,72.0,61.3,29.99,SSE,167,0.0,12.0,69,0.00,,,0.00,Wunderground v.1.15,2013-08-08 00:59:00,
2013-08-07 21:04:00,72.0,61.3,29.99,SSE,166,0.0,5.0,69,0.00,,,0.00,Wunderground v.1.15,2013-08-08 01:04:00,
2013-08-07 21:09:00,72.0,61.3,29.99,SSE,165,1.0,7.0,69,0.00,,,0.00,Wunderground v.1.15,2013-08-08 01:09:00,
2013-08-07 21:14:00,72.0,61.3,29.98,SSE,161,3.0,6.0,69,0.00,,,0.00,Wunderground v.1.15,2013-08-08 01:14:00,
2013-08-07 21:19:00,72.1,61.4,29.98,SSE,161,0.0,7.0,69,0.00,,,0.00,Wunderground v.1.15,2013-08-08 01:19:00,
2013-08-07 21:24:00,72.1,61.4,29.98,South,180,1.0,7.0,69,0.00,,,0.00,Wunderground v.1.15,2013-08-08 01:24:00,
2013-08-07 21:29:00,72.1,61.4,29.99,South,178,0.0,7.0,69,0.00,,,0.00,Wunderground v.1.15,2013-08-08 01:29:00,
2013-08-07 21:34:00,72.0,61.3,29.99,South,170,0.0,7.0,69,0.00,,,0.00,Wunderground v.1.15,2013-08-08 01:34:00,
2013-08-07 21:39:00,72.0,61.3,29.99,South,170,0.0,7.0,69,0.00,,,0.00,Wunderground v.1.15,2013-08-08 01:39:00,
2013-08-07 21:44:00,71.8,61.1,29.99,South,170,0.0,5.0,69,0.00,,,0.00,Wunderground v.1.15,2013-08-08 01:44:00,
2013-08-07 21:50:00,71.8,61.1,29.99,South,184,0.0,2.0,69,0.00,,,0.00,Wunderground v.1.15,2013-08-08 01:50:00,
2013-08-07 21:55:00,71.8,61.1,29.99,South,186,0.0,7.0,69,0.00,,,0.00,Wunderground v.1.15,2013-08-08 01:55:00,
2013-08-07 22:00:00,71.8,61.1,29.99,South,184,0.0,4.0,69,0.00,,,0.00,Wunderground v.1.15,2013-08-08 02:00:00,
2013-08-07 22:05:00,71.8,61.1,29.99,South,188,0.0,6.0,69,0.00,,,0.00,Wunderground v.1.15,2013-08-08 02:05:00,
2013-08-07 22:10:00,71.8,61.1,29.99,South,184,0.0,4.0,69,0.00,,,0.00,Wunderground v.1.15,2013-08-08 02:10:00,
2013-08-07 22:15:00,71.8,61.1,29.98,South,174,2.0,8.0,69,0.00,,,0.00,Wunderground v.1.15,2013-08-08 02:15:00,
2013-08-07 22:20:00,71.8,60.7,29.98,South,177,0.0,3.0,68,0.00,,,0.00,Wunderground v.1.15,2013-08-08 02:20:00,
2013-08-07 22:25:00,71.6,60.9,29.98,South,187,0.0,10.0,69,0.00,,,0.00,Wunderground v.1.15,2013-08-08 02:25:00,
2013-08-07 22:30:00,71.5,60.8,29.98,South,169,5.0,6.0,69,0.00,,,0.00,Wunderground v.1.15,2013-08-08 02:30:00,
2013-08-07 22:35:00,71.5,60.8,29.98,SSW,192,3.0,12.0,69,0.00,,,0.00,Wunderground v.1.15,2013-08-08 02:35:00,
2013-08-07 22:40:00,71.5,60.8,29.98,South,173,2.0,8.0,69,0.00,,,0.00,Wunderground v.1.15,2013-08-08 02:40:00,
2013-08-07 22:45:00,71.6,60.9,29.97,SSW,194,0.0,11.0,69,0.00,,,0.00,Wunderground v.1.15,2013-08-08 02:45:00,
2013-08-07 22:50:00,71.6,60.5,29.97,South,188,7.0,10.0,68,0.00,,,0.00,Wunderground v.1.15,2013-08-08 02:50:00,
2013-08-07 22:55:00,71.8,60.7,29.97,South,175,3.0,15.0,68,0.00,,,0.00,Wunderground v.1.15,2013-08-08 02:55:00,
2013-08-07 23:00:00,71.8,60.2,29.97,South,178,0.0,6.0,67,0.00,,,0.00,Wunderground v.1.15,2013-08-08 03:00:00,
2013-08-07 23:05:00,71.8,60.2,29.97,SSW,202,1.0,10.0,67,0.00,,,0.00,Wunderground v.1.15,2013-08-08 03:05:00,
2013-08-07 23:10:00,71.8,59.8,29.97,SSW,204,9.0,11.0,66,0.00,,,0.00,Wunderground v.1.15,2013-08-08 03:10:00,
2013-08-07 23:15:00,71.8,59.8,29.97,SSW,200,2.0,11.0,66,0.00,,,0.00,Wunderground v.1.15,2013-08-08 03:15:00,
2013-08-07 23:20:00,71.8,59.8,29.97,South,178,0.0,5.0,66,0.00,,,0.00,Wunderground v.1.15,2013-08-08 03:20:00,
2013-08-07 23:26:00,71.6,59.6,29.97,South,176,0.0,10.0,66,0.00,,,0.00,Wunderground v.1.15,2013-08-08 03:26:00,
2013-08-07 23:31:00,71.5,59.5,29.96,South,169,0.0,6.0,66,0.00,,,0.00,Wunderground v.1.15,2013-08-08 03:31:00,
2013-08-07 23:36:00,71.5,59.5,29.96,SSE,166,3.0,7.0,66,0.00,,,0.00,Wunderground v.1.15,2013-08-08 03:36:00,
2013-08-07 23:41:00,71.3,59.4,29.96,SE,126,10.0,10.0,66,0.00,,,0.00,Wunderground v.1.15,2013-08-08 03:41:00,
2013-08-07 23:46:00,71.3,59.4,29.96,SSE,165,0.0,11.0,66,0.00,,,0.00,Wunderground v.1.15,2013-08-08 03:46:00,
2013-08-07 23:52:00,71.3,59.8,29.96,SSE,162,0.0,4.0,67,0.00,,,0.00,Wunderground v.1.15,2013-08-08 03:52:00,
2013-08-07 23:57:00,71.3,59.8,29.96,South,177,0.0,5.0,67,0.00,,,0.00,Wunderground v.1.15,2013-08-08 03:57:00,